createdAt,value
2024-01-29T00:01:07.465Z,8.80
2024-01-29T00:03:34.870Z,8.80
2024-01-29T00:06:02.341Z,8.80
2024-01-29T00:08:29.835Z,8.80
2024-01-29T00:10:57.099Z,8.90
2024-01-29T00:13:25.003Z,8.90
2024-01-29T00:15:52.217Z,8.90
2024-01-29T00:18:19.481Z,9.00
2024-01-29T00:20:46.741Z,9.00
2024-01-29T00:23:13.897Z,9.10
2024-01-29T00:25:44.660Z,9.10
2024-01-29T00:28:12.197Z,9.10
2024-01-29T00:30:39.418Z,9.10
2024-01-29T00:33:06.672Z,9.10
2024-01-29T00:35:33.884Z,9.10
2024-01-29T00:38:00.982Z,9.10
2024-01-29T00:40:29.210Z,9.10
2024-01-29T00:42:56.455Z,9.10
2024-01-29T00:45:23.909Z,9.10
2024-01-29T00:47:51.147Z,9.10
2024-01-29T00:50:18.681Z,9.10
2024-01-29T00:52:45.789Z,9.00
2024-01-29T00:55:13.793Z,9.00
2024-01-29T00:57:41.255Z,9.00
2024-01-29T01:00:09.841Z,9.00
2024-01-29T01:02:37.062Z,9.00
2024-01-29T01:05:05.314Z,9.00
2024-01-29T01:07:32.694Z,8.90
2024-01-29T01:09:59.885Z,8.90
2024-01-29T01:12:27.092Z,8.90
2024-01-29T01:14:55.616Z,8.90
2024-01-29T01:17:22.770Z,9.00
2024-01-29T01:19:50.090Z,9.00
2024-01-29T01:22:17.407Z,9.10
2024-01-29T01:24:47.822Z,9.20
2024-01-29T01:27:18.405Z,9.20
2024-01-29T01:29:46.040Z,9.20
2024-01-29T01:32:13.396Z,9.20
2024-01-29T01:34:40.679Z,9.20
2024-01-29T01:37:07.831Z,9.20
2024-01-29T01:39:34.936Z,9.30
2024-01-29T01:42:05.736Z,9.20
2024-01-29T01:44:32.984Z,9.30
2024-01-29T01:47:00.918Z,9.30
2024-01-29T01:49:32.095Z,9.30
2024-01-29T01:52:02.752Z,9.40
2024-01-29T01:54:30.055Z,9.40
2024-01-29T01:56:58.371Z,9.40
2024-01-29T01:59:25.543Z,9.50
2024-01-29T02:01:53.845Z,9.50
2024-01-29T02:04:21.190Z,9.60
2024-01-29T02:06:48.760Z,9.60
2024-01-29T02:09:15.900Z,9.60
2024-01-29T02:11:43.000Z,9.70
2024-01-29T02:14:11.666Z,9.80
2024-01-29T02:16:38.830Z,9.80
2024-01-29T02:19:11.230Z,9.80
2024-01-29T02:21:38.862Z,9.90
2024-01-29T02:24:06.045Z,9.90
2024-01-29T02:26:33.103Z,9.90
2024-01-29T02:29:00.235Z,9.90
2024-01-29T02:31:27.872Z,9.90
2024-01-29T02:33:55.077Z,9.90
2024-01-29T02:36:22.364Z,9.90
2024-01-29T02:38:49.754Z,9.90
2024-01-29T02:41:16.903Z,9.90
2024-01-29T02:43:44.333Z,9.90
2024-01-29T02:46:11.432Z,9.80
2024-01-29T02:48:39.332Z,9.80
2024-01-29T02:51:07.442Z,9.80
2024-01-29T02:53:34.654Z,9.70
2024-01-29T02:56:01.785Z,9.60
2024-01-29T02:58:33.118Z,9.60
2024-01-29T03:01:00.301Z,9.50
2024-01-29T03:03:27.823Z,9.60
2024-01-29T03:05:55.067Z,9.60
2024-01-29T03:08:22.384Z,9.60
2024-01-29T03:10:49.528Z,9.60
2024-01-29T03:13:16.661Z,9.60
2024-01-29T03:15:46.367Z,9.60
2024-01-29T03:18:16.426Z,9.50
2024-01-29T03:20:43.785Z,9.50
2024-01-29T03:23:11.750Z,9.50
2024-01-29T03:25:38.945Z,9.50
2024-01-29T03:28:06.717Z,9.50
2024-01-29T03:30:33.818Z,9.60
2024-01-29T03:33:01.191Z,9.60
2024-01-29T03:35:28.823Z,9.60
2024-01-29T03:37:55.927Z,9.60
2024-01-29T03:40:24.565Z,9.60
2024-01-29T03:42:51.720Z,9.60
2024-01-29T03:45:18.891Z,9.60
2024-01-29T03:47:45.977Z,9.60
2024-01-29T03:50:13.257Z,9.60
2024-01-29T03:52:40.457Z,9.60
2024-01-29T03:55:08.038Z,9.70
2024-01-29T03:57:36.611Z,9.70
2024-01-29T04:00:04.255Z,9.70
2024-01-29T04:02:38.592Z,9.60
2024-01-29T04:05:06.364Z,9.70
2024-01-29T04:07:33.891Z,9.70
2024-01-29T04:10:01.140Z,9.70
2024-01-29T04:12:29.264Z,9.70
2024-01-29T04:14:56.446Z,9.70
2024-01-29T04:17:23.617Z,9.70
2024-01-29T04:19:51.106Z,9.70
2024-01-29T04:22:18.471Z,9.70
2024-01-29T04:24:45.648Z,9.70
2024-01-29T04:27:12.779Z,9.70
2024-01-29T04:29:39.955Z,9.70
2024-01-29T04:32:07.506Z,9.70
2024-01-29T04:34:34.794Z,9.80
2024-01-29T04:37:02.016Z,9.80
2024-01-29T04:39:29.948Z,9.80
2024-01-29T04:41:59.176Z,9.80
2024-01-29T04:44:26.472Z,9.70
2024-01-29T04:46:53.535Z,9.80
2024-01-29T04:49:20.785Z,9.80
2024-01-29T04:51:48.006Z,9.80
2024-01-29T04:54:15.121Z,9.80
2024-01-29T04:56:42.251Z,9.90
2024-01-29T04:59:09.350Z,9.80
2024-01-29T05:01:36.543Z,9.80
2024-01-29T05:04:03.894Z,9.90
2024-01-29T05:06:31.553Z,9.90
2024-01-29T05:09:02.219Z,9.90
2024-01-29T05:11:30.587Z,9.90
2024-01-29T05:13:58.020Z,9.90
2024-01-29T05:16:25.191Z,9.90
2024-01-29T05:18:52.406Z,9.90
2024-01-29T05:21:19.541Z,9.90
2024-01-29T05:23:46.603Z,9.90
2024-01-29T05:26:13.763Z,9.90
2024-01-29T05:28:43.257Z,9.90
2024-01-29T05:31:10.488Z,9.90
2024-01-29T05:33:37.867Z,9.90
2024-01-29T05:36:05.365Z,9.90
2024-01-29T05:38:36.666Z,9.90
2024-01-29T05:41:04.000Z,9.90
2024-01-29T05:43:31.102Z,9.90
2024-01-29T05:45:58.604Z,9.90
2024-01-29T05:48:25.985Z,9.90
2024-01-29T05:50:56.271Z,9.90
2024-01-29T05:53:24.812Z,9.90
2024-01-29T05:55:51.938Z,9.90
2024-01-29T05:58:19.223Z,9.90
2024-01-29T06:00:46.713Z,9.90
2024-01-29T06:03:14.296Z,9.90
2024-01-29T06:05:41.567Z,9.90
2024-01-29T06:08:08.910Z,9.90
2024-01-29T06:10:36.687Z,9.90
2024-01-29T06:13:04.021Z,9.90
2024-01-29T06:15:31.260Z,9.90
2024-01-29T06:18:01.143Z,9.90
2024-01-29T06:20:31.512Z,9.90
2024-01-29T06:23:01.610Z,9.90
2024-01-29T06:25:29.067Z,9.90
2024-01-29T06:27:56.321Z,9.90
2024-01-29T06:30:23.618Z,9.90
2024-01-29T06:32:50.976Z,9.90
2024-01-29T06:35:20.020Z,9.90
2024-01-29T06:37:47.193Z,9.90
2024-01-29T06:40:14.620Z,9.90
2024-01-29T06:42:41.968Z,9.90
2024-01-29T06:45:09.652Z,9.80
2024-01-29T06:47:36.895Z,9.80
2024-01-29T06:50:04.509Z,9.80
2024-01-29T06:52:31.760Z,9.80
2024-01-29T06:55:02.809Z,9.80
2024-01-29T06:57:30.108Z,9.80
2024-01-29T06:59:59.619Z,9.80
2024-01-29T07:02:26.832Z,9.80
2024-01-29T07:04:55.603Z,9.70
2024-01-29T07:07:22.998Z,9.70
2024-01-29T07:09:54.782Z,9.70
2024-01-29T07:12:22.209Z,9.70
2024-01-29T07:14:50.479Z,9.70
2024-01-29T07:17:17.710Z,9.80
2024-01-29T07:19:46.691Z,9.80
2024-01-29T07:22:19.778Z,9.80
2024-01-29T07:24:47.513Z,9.80
2024-01-29T07:27:14.916Z,9.70
2024-01-29T07:29:42.102Z,9.70
2024-01-29T07:32:09.309Z,9.70
2024-01-29T07:34:37.920Z,9.70
2024-01-29T07:37:05.669Z,9.70
2024-01-29T07:39:33.656Z,9.80
2024-01-29T07:42:00.869Z,9.70
2024-01-29T07:44:29.651Z,9.70
2024-01-29T07:46:56.857Z,9.80
2024-01-29T07:49:25.193Z,9.70
2024-01-29T07:51:52.495Z,9.80
2024-01-29T07:54:19.685Z,9.80
2024-01-29T07:56:46.782Z,9.80
2024-01-29T07:59:13.942Z,9.80
2024-01-29T08:01:41.330Z,9.80
2024-01-29T08:04:41.736Z,9.80
2024-01-29T08:07:09.140Z,9.80
2024-01-29T08:09:49.507Z,9.80
2024-01-29T08:12:29.108Z,9.80
2024-01-29T08:18:17.738Z,9.90
2024-01-29T08:20:45.674Z,9.90
2024-01-29T08:23:13.050Z,9.90
2024-01-29T08:25:40.224Z,10.00
2024-01-29T08:28:20.828Z,10.00
2024-01-29T08:30:51.094Z,10.00
2024-01-29T08:33:18.693Z,10.10
2024-01-29T08:39:12.812Z,10.20
2024-01-29T08:41:43.198Z,10.20
2024-01-29T08:44:11.167Z,10.30
2024-01-29T08:46:38.459Z,10.30
2024-01-29T08:49:05.758Z,10.30
2024-01-29T08:51:36.651Z,10.40
2024-01-29T08:54:03.946Z,10.40
2024-01-29T08:56:34.220Z,10.40
2024-01-29T08:59:03.992Z,10.40
2024-01-29T09:01:33.725Z,10.50
2024-01-29T09:04:00.979Z,10.50
2024-01-29T09:06:31.250Z,10.50
2024-01-29T09:09:01.168Z,10.60
2024-01-29T09:11:28.702Z,10.60
2024-01-29T09:13:55.802Z,10.60
2024-01-29T09:16:22.927Z,10.60
2024-01-29T09:18:50.378Z,10.60
2024-01-29T09:21:17.566Z,10.60
2024-01-29T09:23:44.696Z,10.60
2024-01-29T09:26:12.128Z,10.80
2024-01-29T09:28:43.488Z,10.80
2024-01-29T09:31:11.207Z,10.80
2024-01-29T09:33:38.778Z,10.80
2024-01-29T09:36:06.360Z,10.90
2024-01-29T09:38:33.496Z,10.90
2024-01-29T09:41:00.695Z,10.90
2024-01-29T09:43:28.936Z,10.90
2024-01-29T09:45:56.290Z,11.00
2024-01-29T09:48:23.599Z,11.00
2024-01-29T09:50:50.880Z,11.10
2024-01-29T09:53:22.307Z,11.10
2024-01-29T09:55:49.740Z,11.20
2024-01-29T09:58:17.494Z,11.30
2024-01-29T10:00:44.685Z,11.30
2024-01-29T10:03:22.964Z,11.30
2024-01-29T10:05:50.475Z,11.50
2024-01-29T10:08:17.762Z,11.50
2024-01-29T10:10:44.865Z,11.50
2024-01-29T10:13:12.014Z,11.50
2024-01-29T10:15:39.521Z,11.60
2024-01-29T10:18:11.118Z,11.60
2024-01-29T10:20:38.641Z,11.70
2024-01-29T10:23:05.774Z,11.80
2024-01-29T10:25:35.664Z,11.80
2024-01-29T10:28:15.381Z,11.90
2024-01-29T10:30:42.751Z,12.00
2024-01-29T10:33:10.450Z,12.00
2024-01-29T10:35:38.404Z,12.10
2024-01-29T10:38:06.566Z,12.10
2024-01-29T10:40:34.480Z,12.10
2024-01-29T10:43:02.717Z,12.10
2024-01-29T10:45:30.150Z,12.10
2024-01-29T10:48:11.568Z,12.10
2024-01-29T10:50:39.100Z,12.00
2024-01-29T10:53:06.308Z,12.00
2024-01-29T10:55:33.410Z,12.00
2024-01-29T10:58:02.815Z,12.00
2024-01-29T11:00:30.422Z,12.10
2024-01-29T11:02:57.926Z,12.10
2024-01-29T11:05:25.573Z,12.10
2024-01-29T11:07:56.305Z,12.20
2024-01-29T11:10:28.237Z,12.20
2024-01-29T11:12:56.150Z,12.30
2024-01-29T11:15:23.517Z,12.40
2024-01-29T11:17:50.785Z,12.40
2024-01-29T11:20:19.333Z,12.40
2024-01-29T11:23:21.704Z,12.40
2024-01-29T11:26:18.584Z,12.30
2024-01-29T11:28:48.293Z,12.30
2024-01-29T11:31:15.838Z,12.30
2024-01-29T11:33:45.097Z,12.40
2024-01-29T11:36:15.817Z,12.40
2024-01-29T11:38:43.079Z,12.40
2024-01-29T11:41:13.911Z,12.40
2024-01-29T11:43:43.741Z,12.40
2024-01-29T11:46:13.101Z,12.40
2024-01-29T11:48:40.556Z,12.40
2024-01-29T11:51:07.866Z,12.40
2024-01-29T11:53:36.035Z,12.30
2024-01-29T11:56:03.437Z,12.30
2024-01-29T11:58:30.792Z,12.20
2024-01-29T12:01:08.340Z,12.00
2024-01-29T12:03:43.857Z,12.00
2024-01-29T12:06:16.945Z,11.90
2024-01-29T12:08:50.758Z,11.70
2024-01-29T12:11:25.467Z,11.60
2024-01-29T12:13:59.839Z,11.50
2024-01-29T12:16:27.058Z,11.50
2024-01-29T12:26:38.773Z,11.50
2024-01-29T12:29:46.870Z,11.50
2024-01-29T12:32:21.863Z,11.60
2024-01-29T12:34:51.563Z,11.60
2024-01-29T12:37:23.457Z,11.70
2024-01-29T12:40:00.544Z,11.70
2024-01-29T12:42:28.271Z,11.80
2024-01-29T12:44:56.655Z,11.80
2024-01-29T12:47:28.109Z,11.80
2024-01-29T12:50:13.518Z,11.70
2024-01-29T12:52:44.684Z,11.90
2024-01-29T12:55:43.835Z,12.00
2024-01-29T12:58:11.841Z,12.10
2024-01-29T13:00:45.060Z,12.00
2024-01-29T13:03:15.877Z,12.00
2024-01-29T13:06:16.484Z,12.00
2024-01-29T13:08:52.576Z,11.90
2024-01-29T13:15:06.059Z,11.90
2024-01-29T13:18:07.556Z,12.00
2024-01-29T13:20:46.978Z,12.00
2024-01-29T13:23:17.879Z,12.10
2024-01-29T13:25:46.082Z,12.10
2024-01-29T13:28:13.818Z,12.10
2024-01-29T13:30:44.929Z,12.20
2024-01-29T13:33:15.752Z,12.30
2024-01-29T13:35:52.502Z,12.30
2024-01-29T13:38:22.632Z,12.30
2024-01-29T13:40:50.220Z,12.30
2024-01-29T13:43:21.245Z,12.30
2024-01-29T13:45:52.037Z,12.20
2024-01-29T13:48:19.905Z,12.20
2024-01-29T13:50:47.158Z,12.20
2024-01-29T13:53:14.361Z,12.10
2024-01-29T13:55:41.551Z,12.00
2024-01-29T13:58:08.887Z,11.90
2024-01-29T14:00:38.866Z,11.90
2024-01-29T14:03:06.264Z,11.80
2024-01-29T14:05:33.600Z,11.90
2024-01-29T14:08:00.763Z,11.80
2024-01-29T14:10:30.573Z,11.90
2024-01-29T14:13:00.246Z,11.90
2024-01-29T14:15:28.014Z,11.90
2024-01-29T14:17:55.336Z,11.90
2024-01-29T14:20:22.774Z,11.90
2024-01-29T14:22:56.945Z,11.80
2024-01-29T14:25:25.347Z,11.70
2024-01-29T14:27:53.568Z,11.70
2024-01-29T14:30:23.423Z,11.70
2024-01-29T14:32:53.761Z,11.60
2024-01-29T14:35:22.089Z,11.60
2024-01-29T14:37:49.217Z,11.60
2024-01-29T14:40:17.481Z,11.50
2024-01-29T14:42:44.711Z,11.60
2024-01-29T14:45:12.010Z,11.60
2024-01-29T14:47:39.457Z,11.60
2024-01-29T14:50:07.049Z,11.50
2024-01-29T14:52:34.263Z,11.50
2024-01-29T14:55:01.571Z,11.50
2024-01-29T14:57:31.558Z,11.50
2024-01-29T15:00:02.823Z,11.40
2024-01-29T15:02:30.396Z,11.30
2024-01-29T15:05:00.390Z,11.30
2024-01-29T15:07:30.190Z,11.20
2024-01-29T15:09:59.793Z,11.20
2024-01-29T15:12:31.508Z,11.20
2024-01-29T15:15:01.345Z,11.20
2024-01-29T15:17:31.607Z,11.10
2024-01-29T15:19:59.623Z,11.10
2024-01-29T15:22:26.994Z,11.10
2024-01-29T15:24:55.574Z,11.10
2024-01-29T15:27:22.737Z,11.10
2024-01-29T15:29:49.912Z,11.10
2024-01-29T15:32:16.990Z,11.00
2024-01-29T15:34:48.921Z,11.00
2024-01-29T15:37:17.128Z,11.00
2024-01-29T15:39:44.390Z,11.00
2024-01-29T15:42:18.081Z,10.90
2024-01-29T15:44:45.439Z,10.90
2024-01-29T15:47:12.828Z,10.80
2024-01-29T15:49:41.287Z,10.80
2024-01-29T15:52:08.876Z,10.80
2024-01-29T15:54:36.847Z,10.80
2024-01-29T15:57:07.903Z,10.80
2024-01-29T15:59:35.530Z,10.70
2024-01-29T16:02:09.984Z,10.70
2024-01-29T16:04:40.054Z,10.70
2024-01-29T16:07:07.884Z,10.70
2024-01-29T16:09:35.312Z,10.60
2024-01-29T16:12:02.770Z,10.60
2024-01-29T16:14:30.502Z,10.70
2024-01-29T16:17:00.033Z,10.60
2024-01-29T16:19:29.948Z,10.60
2024-01-29T16:21:58.922Z,10.60
2024-01-29T16:24:26.234Z,10.60
2024-01-29T16:26:53.818Z,10.60
2024-01-29T16:29:21.050Z,10.60
2024-01-29T16:31:54.317Z,10.60
2024-01-29T16:34:22.309Z,10.60
2024-01-29T16:36:50.068Z,10.50
2024-01-29T16:39:17.344Z,10.60
2024-01-29T16:41:44.630Z,10.50
2024-01-29T16:44:12.230Z,10.50
2024-01-29T16:46:45.529Z,10.50
2024-01-29T16:49:16.423Z,10.60
2024-01-29T16:51:43.875Z,10.50
2024-01-29T16:54:11.394Z,10.60
2024-01-29T16:56:44.139Z,10.60
2024-01-29T16:59:11.798Z,10.60
2024-01-29T17:01:40.000Z,10.60
2024-01-29T17:04:07.804Z,10.60
2024-01-29T17:06:35.680Z,10.60
2024-01-29T17:09:02.996Z,10.60
2024-01-29T17:11:30.816Z,10.60
2024-01-29T17:14:01.365Z,10.60
2024-01-29T17:16:34.112Z,10.60
2024-01-29T17:19:09.280Z,10.60
2024-01-29T17:22:10.730Z,10.60
2024-01-29T17:24:39.230Z,10.60
2024-01-29T17:30:45.605Z,10.60
2024-01-29T17:33:21.779Z,10.60
2024-01-29T17:35:59.192Z,10.70
2024-01-29T17:38:29.882Z,10.60
2024-01-29T17:40:59.982Z,10.60
2024-01-29T17:43:31.812Z,10.60
2024-01-29T17:46:09.485Z,10.60
2024-01-29T17:48:37.229Z,10.60
2024-01-29T17:51:05.290Z,10.60
2024-01-29T17:53:38.468Z,10.60
2024-01-29T17:56:06.595Z,10.60
2024-01-29T17:58:33.949Z,10.60
2024-01-29T18:01:30.808Z,10.60
2024-01-29T18:04:03.211Z,10.60
2024-01-29T18:10:11.624Z,10.60
2024-01-29T18:12:41.991Z,10.70
2024-01-29T18:15:09.541Z,10.60
2024-01-29T18:17:43.424Z,10.60
2024-01-29T18:20:14.577Z,10.60
2024-01-29T18:22:46.326Z,10.60
2024-01-29T18:25:20.713Z,10.60
2024-01-29T18:27:50.176Z,10.60
2024-01-29T18:36:55.148Z,10.50
2024-01-29T18:38:11.391Z,10.50
2024-01-29T18:40:39.626Z,10.50
2024-01-29T18:43:07.570Z,10.50
2024-01-29T18:45:39.626Z,10.50
2024-01-29T18:48:18.771Z,10.50
2024-01-29T18:50:49.385Z,10.50
2024-01-29T18:57:04.498Z,10.50
2024-01-29T18:59:32.812Z,10.50
2024-01-29T19:02:00.287Z,10.60
2024-01-29T19:05:23.826Z,10.60
2024-01-29T19:07:53.373Z,10.60
2024-01-29T19:10:20.748Z,10.50
2024-01-29T19:12:48.156Z,10.50
2024-01-29T19:15:15.425Z,10.50
2024-01-29T19:17:45.204Z,10.50
2024-01-29T19:20:12.741Z,10.50
2024-01-29T19:22:40.095Z,10.50
2024-01-29T19:25:12.065Z,10.40
2024-01-29T19:28:11.850Z,10.40
2024-01-29T19:30:39.812Z,10.40
2024-01-29T19:33:08.187Z,10.40
2024-01-29T19:35:38.818Z,10.40
2024-01-29T19:38:09.268Z,10.40
2024-01-29T19:40:38.642Z,10.40
2024-01-29T19:43:06.391Z,10.30
2024-01-29T19:45:34.936Z,10.30
2024-01-29T19:48:02.505Z,10.30
2024-01-29T19:50:32.138Z,10.30
2024-01-29T19:52:59.568Z,10.40
2024-01-29T19:55:26.689Z,10.50
2024-01-29T19:57:56.920Z,10.50
2024-01-29T20:00:27.051Z,10.60
2024-01-29T20:02:54.893Z,10.60
2024-01-29T20:05:23.021Z,10.70
2024-01-29T20:07:50.434Z,10.70
2024-01-29T20:10:18.425Z,10.70
2024-01-29T20:12:51.533Z,10.60
2024-01-29T20:15:19.616Z,10.60
2024-01-29T20:17:47.223Z,10.60
2024-01-29T20:20:14.828Z,10.60
2024-01-29T20:22:42.406Z,10.60
2024-01-29T20:27:51.312Z,10.70
2024-01-29T20:30:22.031Z,10.80
2024-01-29T20:32:51.793Z,10.80
2024-01-29T20:35:24.627Z,10.80
2024-01-29T20:37:53.396Z,10.90
2024-01-29T20:40:21.653Z,10.90
2024-01-29T20:42:48.947Z,10.80
2024-01-29T20:45:16.443Z,10.80
2024-01-29T20:47:44.149Z,10.80
2024-01-29T20:50:11.501Z,10.70
2024-01-29T20:52:38.808Z,10.70
2024-01-29T20:55:14.099Z,10.60
2024-01-29T20:57:44.870Z,10.60
2024-01-29T21:00:19.108Z,10.60
2024-01-29T21:03:02.179Z,10.60
2024-01-29T21:05:31.852Z,10.60
2024-01-29T21:08:04.001Z,10.60
2024-01-29T21:10:31.302Z,10.60
2024-01-29T21:13:01.384Z,10.50
2024-01-29T21:15:31.442Z,10.50
2024-01-29T21:18:00.928Z,10.50
2024-01-29T21:20:28.886Z,10.50
2024-01-29T21:22:55.989Z,10.50
2024-01-29T21:25:23.387Z,10.50
2024-01-29T21:27:50.671Z,10.50
2024-01-29T21:30:23.481Z,10.50
2024-01-29T21:32:50.766Z,10.60
2024-01-29T21:35:18.240Z,10.60
2024-01-29T21:37:45.364Z,10.60
2024-01-29T21:40:12.736Z,10.60
2024-01-29T21:42:39.918Z,10.60
2024-01-29T21:45:08.732Z,10.60
2024-01-29T21:47:35.823Z,10.50
2024-01-29T21:50:04.933Z,10.60
2024-01-29T21:52:32.221Z,10.60
2024-01-29T21:55:06.140Z,10.70
2024-01-29T21:57:37.101Z,10.60
2024-01-29T22:00:06.101Z,10.60
2024-01-29T22:02:36.467Z,10.60
2024-01-29T22:05:04.017Z,10.60
2024-01-29T22:07:31.336Z,10.60
2024-01-29T22:09:59.176Z,10.50
2024-01-29T22:12:27.932Z,10.50
2024-01-29T22:14:55.132Z,10.60
2024-01-29T22:17:22.385Z,10.80
2024-01-29T22:19:50.063Z,10.80
2024-01-29T22:22:17.356Z,10.90
2024-01-29T22:24:45.077Z,10.80
2024-01-29T22:27:12.156Z,10.80
2024-01-29T22:29:40.927Z,10.90
2024-01-29T22:32:08.067Z,10.90
2024-01-29T22:34:35.286Z,11.00
2024-01-29T22:37:02.583Z,11.00
2024-01-29T22:39:29.851Z,11.10
2024-01-29T22:41:57.088Z,11.10
2024-01-29T22:44:24.482Z,11.20
2024-01-29T22:46:51.597Z,11.20
2024-01-29T22:49:19.318Z,11.20
2024-01-29T22:51:46.721Z,11.30
2024-01-29T22:54:14.057Z,11.30
2024-01-29T22:56:41.555Z,11.30
2024-01-29T22:59:09.295Z,11.30
2024-01-29T23:01:36.478Z,11.30
2024-01-29T23:04:03.813Z,11.40
2024-01-29T23:06:31.038Z,11.40
2024-01-29T23:08:58.166Z,11.30
2024-01-29T23:11:25.332Z,11.30
2024-01-29T23:13:52.490Z,11.30
2024-01-29T23:16:19.858Z,11.30
2024-01-29T23:18:48.417Z,11.30
2024-01-29T23:21:15.644Z,11.30
2024-01-29T23:23:43.198Z,11.30
2024-01-29T23:26:10.356Z,11.40
2024-01-29T23:28:37.858Z,11.40
2024-01-29T23:31:05.137Z,11.40
2024-01-29T23:33:32.411Z,11.40
2024-01-29T23:35:59.668Z,11.40
2024-01-29T23:38:26.748Z,11.40
2024-01-29T23:40:53.841Z,11.40
2024-01-29T23:43:21.096Z,11.40
2024-01-29T23:45:48.399Z,11.40
2024-01-29T23:48:15.734Z,11.40
2024-01-29T23:50:43.125Z,11.50
2024-01-29T23:53:10.264Z,11.50
2024-01-29T23:55:37.485Z,11.50
2024-01-29T23:58:07.924Z,11.50
